createdAt,value
2019-04-07T00:00:33.154Z,100410.91
2019-04-07T00:03:02.859Z,100407.46
2019-04-07T00:05:33.384Z,100406.07
2019-04-07T00:08:03.460Z,100408.85
2019-04-07T00:10:33.057Z,100404.98
2019-04-07T00:13:04.031Z,100409.72
2019-04-07T00:15:36.330Z,100411.08
2019-04-07T00:18:06.586Z,100403.74
2019-04-07T00:20:36.386Z,100405.38
2019-04-07T00:23:06.085Z,100408.39
2019-04-07T00:25:38.639Z,100408.36
2019-04-07T00:28:08.695Z,100414.05
2019-04-07T00:30:38.413Z,100408.55
2019-04-07T00:33:08.222Z,100409.87
2019-04-07T00:36:00.894Z,100406.11
2019-04-07T00:38:30.548Z,100403.13
2019-04-07T00:41:00.239Z,100407.31
2019-04-07T00:43:33.049Z,100402.18
2019-04-07T00:46:06.904Z,100403.37
2019-04-07T00:48:36.496Z,100401.52
2019-04-07T00:51:06.636Z,100398.82
2019-04-07T00:53:36.651Z,100406.50
2019-04-07T00:56:06.664Z,100403.11
2019-04-07T00:58:39.374Z,100412.61
2019-04-07T01:01:10.653Z,100412.03
2019-04-07T01:03:40.306Z,100406.52
2019-04-07T01:06:09.920Z,100409.55
2019-04-07T01:08:39.426Z,100406.78
2019-04-07T01:11:09.120Z,100401.92
2019-04-07T01:13:38.674Z,100405.48
2019-04-07T01:16:08.296Z,100410.45
2019-04-07T01:18:38.072Z,100410.52
2019-04-07T01:21:08.313Z,100406.78
2019-04-07T01:23:37.983Z,100403.97
2019-04-07T01:26:07.593Z,100399.66
2019-04-07T01:28:37.485Z,100398.94
2019-04-07T01:31:07.309Z,100405.09
2019-04-07T01:33:36.855Z,100406.07
2019-04-07T01:36:07.174Z,100406.33
2019-04-07T01:38:36.994Z,100404.57
2019-04-07T01:41:12.133Z,100402.17
2019-04-07T01:43:45.103Z,100403.91
2019-04-07T01:46:16.464Z,100395.36
2019-04-07T01:48:56.435Z,100390.05
2019-04-07T01:51:25.856Z,100400.30
2019-04-07T01:54:13.511Z,100402.12
2019-04-07T01:56:51.723Z,100398.36
2019-04-07T01:59:23.309Z,100400.66
2019-04-07T02:02:06.162Z,100404.29
2019-04-07T02:04:43.552Z,100403.58
2019-04-07T02:07:31.148Z,100400.72
2019-04-07T02:10:18.846Z,100399.36
2019-04-07T02:13:02.394Z,100400.84
2019-04-07T02:15:34.226Z,100408.88
2019-04-07T02:18:08.157Z,100405.49
2019-04-07T02:20:59.776Z,100400.19
2019-04-07T02:23:29.203Z,100402.66
2019-04-07T02:26:11.444Z,100409.02
2019-04-07T02:28:46.198Z,100407.13
2019-04-07T02:31:27.978Z,100412.75
2019-04-07T02:34:06.020Z,100408.84
2019-04-07T02:36:43.372Z,100412.67
2019-04-07T02:39:23.498Z,100408.66
2019-04-07T02:42:11.052Z,100415.89
2019-04-07T02:44:43.072Z,100417.96
2019-04-07T02:47:25.403Z,100418.91
2019-04-07T02:49:56.584Z,100426.75
2019-04-07T02:52:41.335Z,100424.78
2019-04-07T02:55:13.076Z,100422.12
2019-04-07T02:57:44.548Z,100428.60
2019-04-07T03:00:18.228Z,100433.47
2019-04-07T03:02:54.149Z,100431.59
2019-04-07T03:05:34.817Z,100436.14
2019-04-07T03:08:12.257Z,100430.28
2019-04-07T03:10:53.470Z,100434.17
2019-04-07T03:13:28.241Z,100430.89
2019-04-07T03:16:00.836Z,100427.19
2019-04-07T03:18:34.435Z,100432.73
2019-04-07T03:21:09.588Z,100431.59
2019-04-07T03:23:41.626Z,100434.03
2019-04-07T03:26:22.354Z,100435.87
2019-04-07T03:29:11.930Z,100432.44
2019-04-07T03:31:50.985Z,100433.52
2019-04-07T03:34:33.579Z,100431.68
2019-04-07T03:37:34.202Z,100426.25
2019-04-07T03:39:57.544Z,100430.33
2019-04-07T03:42:35.810Z,100426.53
2019-04-07T03:45:08.836Z,100426.86
2019-04-07T03:47:43.647Z,100428.22
2019-04-07T03:50:16.496Z,100433.28
2019-04-07T03:52:51.044Z,100435.60
2019-04-07T03:55:28.699Z,100441.41
2019-04-07T03:57:58.022Z,100437.84
2019-04-07T04:01:00.673Z,100445.92
2019-04-07T04:03:41.199Z,100440.85
2019-04-07T04:06:28.842Z,100446.45
2019-04-07T04:09:11.380Z,100441.98
2019-04-07T04:11:48.895Z,100445.76
2019-04-07T04:14:20.261Z,100440.81
2019-04-07T04:16:51.526Z,100442.13
2019-04-07T04:19:21.056Z,100446.13
2019-04-07T04:21:51.076Z,100445.83
2019-04-07T04:24:21.474Z,100442.65
2019-04-07T04:26:51.888Z,100446.97
2019-04-07T04:29:23.282Z,100449.05
2019-04-07T04:31:53.408Z,100451.91
2019-04-07T04:34:23.664Z,100451.07
2019-04-07T04:36:54.493Z,100453.63
2019-04-07T04:39:24.918Z,100460.12
2019-04-07T04:41:55.658Z,100457.41
2019-04-07T04:44:25.769Z,100470.34
2019-04-07T04:46:56.144Z,100465.84
2019-04-07T04:49:28.996Z,100472.72
2019-04-07T04:51:58.734Z,100465.84
2019-04-07T04:54:29.066Z,100463.10
2019-04-07T04:56:58.938Z,100466.78
2019-04-07T04:59:28.540Z,100471.52
2019-04-07T05:01:58.732Z,100474.23
2019-04-07T05:04:29.308Z,100476.64
2019-04-07T05:06:59.374Z,100488.61
2019-04-07T05:09:40.022Z,100490.97
2019-04-07T05:12:05.622Z,100485.03
2019-04-07T05:14:35.159Z,100489.86
2019-04-07T05:17:05.192Z,100481.80
2019-04-07T05:19:35.582Z,100482.20
2019-04-07T05:22:05.997Z,100485.98
2019-04-07T05:24:36.658Z,100491.50
2019-04-07T05:27:08.602Z,100487.98
2019-04-07T05:29:38.130Z,100494.15
2019-04-07T05:32:07.997Z,100500.69
2019-04-07T05:34:37.858Z,100498.00
2019-04-07T05:37:07.606Z,100501.49
2019-04-07T05:39:37.248Z,100503.28
2019-04-07T05:42:07.055Z,100498.34
2019-04-07T05:44:37.203Z,100504.02
2019-04-07T05:47:07.130Z,100508.06
2019-04-07T05:49:37.651Z,100514.77
2019-04-07T05:52:08.454Z,100520.60
2019-04-07T05:54:38.371Z,100521.03
2019-04-07T05:57:08.550Z,100522.55
2019-04-07T05:59:39.923Z,100521.61
2019-04-07T06:02:09.766Z,100517.53
2019-04-07T06:04:43.561Z,100521.98
2019-04-07T06:07:13.860Z,100521.70
2019-04-07T06:09:43.777Z,100517.15
2019-04-07T06:12:13.867Z,100517.56
2019-04-07T06:14:43.828Z,100518.89
2019-04-07T06:17:15.253Z,100527.17
2019-04-07T06:19:45.366Z,100528.38
2019-04-07T06:22:15.549Z,100525.48
2019-04-07T06:24:46.191Z,100530.52
2019-04-07T06:27:16.992Z,100522.88
2019-04-07T06:29:47.057Z,100525.55
2019-04-07T06:32:16.690Z,100525.36
2019-04-07T06:34:49.021Z,100520.97
2019-04-07T06:37:17.876Z,100525.58
2019-04-07T06:39:50.772Z,100524.75
2019-04-07T06:42:18.915Z,100530.58
2019-04-07T06:44:51.127Z,100526.72
2019-04-07T06:47:22.132Z,100527.91
2019-04-07T06:50:07.366Z,100523.92
2019-04-07T06:52:41.804Z,100518.53
2019-04-07T06:55:29.768Z,100525.16
2019-04-07T06:58:17.523Z,100526.55
2019-04-07T07:00:53.594Z,100526.22
2019-04-07T07:03:41.089Z,100535.72
2019-04-07T07:06:24.092Z,100524.50
2019-04-07T07:08:59.375Z,100524.85
2019-04-07T07:11:32.324Z,100525.17
2019-04-07T07:14:31.373Z,100531.35
2019-04-07T07:16:58.746Z,100539.52
2019-04-07T07:19:44.611Z,100538.45
2019-04-07T07:22:16.142Z,100540.86
2019-04-07T07:24:47.113Z,100541.42
2019-04-07T07:27:17.580Z,100536.56
2019-04-07T07:29:47.734Z,100535.92
2019-04-07T07:32:18.683Z,100537.88
2019-04-07T07:34:48.244Z,100539.11
2019-04-07T07:37:18.397Z,100543.61
2019-04-07T07:39:48.700Z,100551.33
2019-04-07T07:42:21.396Z,100557.80
2019-04-07T07:44:50.380Z,100554.50
2019-04-07T07:47:22.448Z,100551.34
2019-04-07T07:49:52.033Z,100546.88
2019-04-07T07:52:23.249Z,100552.35
2019-04-07T07:54:52.984Z,100550.70
2019-04-07T07:57:24.048Z,100555.25
2019-04-07T07:59:55.204Z,100556.98
2019-04-07T08:02:25.244Z,100556.97
2019-04-07T08:04:58.389Z,100560.01
2019-04-07T08:07:28.721Z,100557.06
2019-04-07T08:09:58.558Z,100556.27
2019-04-07T08:12:28.278Z,100562.07
2019-04-07T08:14:58.627Z,100563.14
2019-04-07T08:17:33.707Z,100566.52
2019-04-07T08:20:02.639Z,100572.67
2019-04-07T08:22:39.636Z,100566.28
2019-04-07T08:25:05.302Z,100571.52
2019-04-07T08:27:38.740Z,100562.83
2019-04-07T08:30:11.765Z,100565.81
2019-04-07T08:32:40.983Z,100570.92
2019-04-07T08:35:10.952Z,100571.70
2019-04-07T08:37:41.678Z,100573.07
2019-04-07T08:40:11.994Z,100566.42
2019-04-07T08:42:41.848Z,100567.45
2019-04-07T08:45:11.694Z,100575.82
2019-04-07T08:47:42.017Z,100572.30
2019-04-07T08:50:12.557Z,100577.94
2019-04-07T08:52:44.271Z,100572.63
2019-04-07T08:55:13.986Z,100572.55
2019-04-07T08:57:43.560Z,100566.91
2019-04-07T09:00:17.535Z,100573.47
2019-04-07T09:03:00.198Z,100574.42
2019-04-07T09:05:24.210Z,100571.47
2019-04-07T09:07:51.890Z,100571.41
2019-04-07T09:10:41.908Z,100569.30
2019-04-07T09:13:12.137Z,100565.49
2019-04-07T09:15:53.341Z,100566.23
2019-04-07T09:18:51.652Z,100565.48
2019-04-07T09:21:19.920Z,100564.12
2019-04-07T09:23:56.479Z,100569.84
2019-04-07T09:26:28.489Z,100563.73
2019-04-07T09:28:59.669Z,100569.03
2019-04-07T09:31:31.513Z,100571.86
2019-04-07T09:34:20.626Z,100568.30
2019-04-07T09:36:54.551Z,100568.90
2019-04-07T09:39:31.436Z,100570.23
2019-04-07T09:42:14.845Z,100563.53
2019-04-07T09:45:03.323Z,100567.61
2019-04-07T09:47:41.702Z,100555.37
2019-04-07T09:50:26.789Z,100566.52
2019-04-07T09:52:55.066Z,100568.59
2019-04-07T09:55:26.775Z,100562.54
2019-04-07T09:58:16.115Z,100558.67
2019-04-07T10:00:47.735Z,100562.22
2019-04-07T10:03:37.682Z,100552.73
2019-04-07T10:06:10.109Z,100554.11
2019-04-07T10:08:38.547Z,100560.48
2019-04-07T10:11:12.870Z,100563.53
2019-04-07T10:13:55.378Z,100562.02
2019-04-07T10:16:40.679Z,100556.85
2019-04-07T10:19:18.036Z,100562.78
2019-04-07T10:21:53.498Z,100555.77
2019-04-07T10:24:24.770Z,100553.62
2019-04-07T10:27:06.928Z,100557.36
2019-04-07T10:29:38.411Z,100544.88
2019-04-07T10:32:27.079Z,100544.61
2019-04-07T10:34:57.539Z,100540.22
2019-04-07T10:37:30.252Z,100541.18
2019-04-07T10:40:02.958Z,100549.72
2019-04-07T10:42:34.661Z,100544.27
2019-04-07T10:45:23.807Z,100538.84
2019-04-07T10:48:01.365Z,100552.28
2019-04-07T10:50:45.336Z,100531.09
2019-04-07T10:53:31.077Z,100545.21
2019-04-07T10:56:02.318Z,100539.06
2019-04-07T10:58:34.270Z,100542.22
2019-04-07T11:01:09.008Z,100536.91
2019-04-07T11:03:44.319Z,100534.36
2019-04-07T11:06:34.682Z,100523.77
2019-04-07T11:09:07.908Z,100534.44
2019-04-07T11:11:49.165Z,100553.16
2019-04-07T11:14:39.404Z,100540.02
2019-04-07T11:17:14.024Z,100536.11
2019-04-07T11:19:46.214Z,100529.41
2019-04-07T11:22:30.908Z,100521.66
2019-04-07T11:25:02.206Z,100520.92
2019-04-07T11:27:40.884Z,100522.20
2019-04-07T11:30:27.657Z,100524.87
2019-04-07T11:33:02.770Z,100522.70
2019-04-07T11:35:32.977Z,100518.20
2019-04-07T11:38:06.942Z,100519.82
2019-04-07T11:40:45.807Z,100519.28
2019-04-07T11:43:20.866Z,100521.80
2019-04-07T11:46:10.889Z,100520.03
2019-04-07T11:48:59.121Z,100516.24
2019-04-07T11:51:42.634Z,100509.64
2019-04-07T11:54:15.303Z,100509.33
2019-04-07T11:56:47.418Z,100512.05
2019-04-07T11:59:21.941Z,100513.16
2019-04-07T12:02:09.090Z,100510.25
2019-04-07T12:04:59.933Z,100507.27
2019-04-07T12:07:33.603Z,100510.27
2019-04-07T12:10:21.394Z,100502.43
2019-04-07T12:12:52.753Z,100504.67
2019-04-07T12:15:31.304Z,100501.48
2019-04-07T12:18:04.336Z,100500.98
2019-04-07T12:20:42.394Z,100495.91
2019-04-07T12:23:16.280Z,100507.39
2019-04-07T12:26:02.139Z,100506.80
2019-04-07T12:28:38.557Z,100510.19
2019-04-07T12:31:11.997Z,100509.22
2019-04-07T12:33:59.553Z,100500.16
2019-04-07T12:36:34.480Z,100500.45
2019-04-07T12:39:18.939Z,100505.95
2019-04-07T12:41:55.870Z,100503.42
2019-04-07T12:44:35.453Z,100499.25
2019-04-07T12:47:19.218Z,100495.53
2019-04-07T12:49:51.903Z,100485.67
2019-04-07T12:52:37.653Z,100502.79
2019-04-07T12:55:19.239Z,100483.47
2019-04-07T12:58:11.152Z,100494.92
2019-04-07T13:00:53.084Z,100500.25
2019-04-07T13:03:26.392Z,100495.95
2019-04-07T13:06:06.336Z,100482.26
2019-04-07T13:08:43.464Z,100484.30
2019-04-07T13:11:37.283Z,100485.03
2019-04-07T13:14:23.766Z,100483.37
2019-04-07T13:17:02.579Z,100470.64
2019-04-07T13:19:36.417Z,100472.22
2019-04-07T13:22:23.056Z,100476.77
2019-04-07T13:24:56.987Z,100477.23
2019-04-07T13:27:41.491Z,100477.53
2019-04-07T13:30:30.293Z,100480.09
2019-04-07T13:33:20.520Z,100482.42
2019-04-07T13:36:01.779Z,100473.51
2019-04-07T13:38:31.669Z,100456.17
2019-04-07T13:41:04.056Z,100457.66
2019-04-07T13:43:38.111Z,100460.31
2019-04-07T13:46:31.762Z,100454.80
2019-04-07T13:49:13.891Z,100462.87
2019-04-07T13:51:51.384Z,100465.05
2019-04-07T13:54:34.768Z,100463.23
2019-04-07T13:57:25.988Z,100466.92
2019-04-07T14:00:13.475Z,100469.09
2019-04-07T14:02:57.085Z,100457.63
2019-04-07T14:05:28.378Z,100451.70
2019-04-07T14:08:00.117Z,100462.13
2019-04-07T14:10:44.004Z,100457.72
2019-04-07T14:13:22.072Z,100454.65
2019-04-07T14:16:04.028Z,100455.84
2019-04-07T14:18:43.775Z,100457.70
2019-04-07T14:21:17.927Z,100455.68
2019-04-07T14:23:50.084Z,100453.47
2019-04-07T14:26:33.507Z,100459.92
2019-04-07T14:29:06.486Z,100453.43
2019-04-07T14:31:51.837Z,100454.72
2019-04-07T14:34:39.113Z,100449.55
2019-04-07T14:37:20.275Z,100451.48
2019-04-07T14:39:57.158Z,100450.25
2019-04-07T14:42:35.205Z,100448.94
2019-04-07T14:45:09.574Z,100450.02
2019-04-07T14:47:41.418Z,100456.92
2019-04-07T14:50:26.466Z,100462.09
2019-04-07T14:53:00.932Z,100452.95
2019-04-07T14:55:49.627Z,100452.88
2019-04-07T14:58:28.108Z,100454.70
2019-04-07T15:01:08.219Z,100445.77
2019-04-07T15:03:37.460Z,100444.48
2019-04-07T15:06:07.580Z,100443.70
2019-04-07T15:08:56.409Z,100442.06
2019-04-07T15:11:31.244Z,100439.52
2019-04-07T15:14:01.958Z,100441.96
2019-04-07T15:16:33.906Z,100441.30
2019-04-07T15:19:04.312Z,100434.38
2019-04-07T15:21:34.330Z,100440.82
2019-04-07T15:24:07.227Z,100440.22
2019-04-07T15:26:35.804Z,100446.48
2019-04-07T15:29:09.245Z,100445.52
2019-04-07T15:31:38.578Z,100447.84
2019-04-07T15:34:11.728Z,100444.45
2019-04-07T15:36:41.341Z,100435.32
2019-04-07T15:39:11.361Z,100446.55
2019-04-07T15:41:43.340Z,100447.50
2019-04-07T15:44:15.206Z,100449.75
2019-04-07T15:46:49.062Z,100451.44
2019-04-07T15:49:16.105Z,100447.79
2019-04-07T15:51:45.657Z,100450.48
2019-04-07T15:54:17.829Z,100450.03
2019-04-07T15:56:49.255Z,100445.34
2019-04-07T15:59:19.163Z,100449.48
2019-04-07T16:01:49.344Z,100446.59
2019-04-07T16:04:25.191Z,100455.86
2019-04-07T16:06:51.572Z,100451.27
2019-04-07T16:09:33.597Z,100448.55
2019-04-07T16:11:58.304Z,100451.95
2019-04-07T16:14:29.814Z,100453.25
2019-04-07T16:17:03.184Z,100455.91
2019-04-07T16:19:40.008Z,100456.06
2019-04-07T16:22:03.251Z,100455.57
2019-04-07T16:24:34.760Z,100458.11
2019-04-07T16:27:06.720Z,100461.25
2019-04-07T16:29:38.659Z,100454.09
2019-04-07T16:32:09.275Z,100459.15
2019-04-07T16:34:41.407Z,100460.37
2019-04-07T16:37:14.742Z,100459.73
2019-04-07T16:39:44.631Z,100466.60
2019-04-07T16:42:15.391Z,100465.69
2019-04-07T16:44:46.152Z,100471.69
2019-04-07T16:47:20.984Z,100474.45
2019-04-07T16:49:49.030Z,100469.12
2019-04-07T16:52:19.201Z,100463.03
2019-04-07T16:54:48.945Z,100471.27
2019-04-07T16:57:18.927Z,100467.00
2019-04-07T16:59:49.128Z,100469.97
2019-04-07T17:02:19.563Z,100472.31
2019-04-07T17:04:49.513Z,100471.89
2019-04-07T17:07:21.128Z,100477.09
2019-04-07T17:09:54.973Z,100472.98
2019-04-07T17:12:22.661Z,100472.15
2019-04-07T17:14:54.268Z,100474.11
2019-04-07T17:17:25.050Z,100468.00
2019-04-07T17:19:57.461Z,100482.20
2019-04-07T17:22:27.222Z,100477.00
2019-04-07T17:25:00.347Z,100486.13
2019-04-07T17:27:29.306Z,100492.02
2019-04-07T17:30:02.958Z,100489.02
2019-04-07T17:32:35.746Z,100492.56
2019-04-07T17:35:07.945Z,100494.39
2019-04-07T17:37:37.561Z,100503.81
2019-04-07T17:40:13.477Z,100505.13
2019-04-07T17:42:43.963Z,100504.95
2019-04-07T17:45:20.354Z,100509.30
2019-04-07T17:47:51.739Z,100513.66
2019-04-07T17:50:32.049Z,100516.77
2019-04-07T17:53:04.173Z,100513.89
2019-04-07T17:55:34.226Z,100514.11
2019-04-07T17:58:16.371Z,100522.02
2019-04-07T18:00:51.782Z,100526.55
2019-04-07T18:03:33.585Z,100527.89
2019-04-07T18:06:18.131Z,100524.91
2019-04-07T18:09:03.837Z,100525.95
2019-04-07T18:11:29.415Z,100526.55
2019-04-07T18:14:16.788Z,100532.57
2019-04-07T18:17:04.463Z,100542.29
2019-04-07T18:19:38.809Z,100543.82
2019-04-07T18:22:19.733Z,100543.52
2019-04-07T18:25:02.298Z,100545.58
2019-04-07T18:27:34.128Z,100549.70
2019-04-07T18:30:08.306Z,100555.66
2019-04-07T18:32:46.944Z,100553.28
2019-04-07T18:35:34.830Z,100558.59
2019-04-07T18:38:22.887Z,100557.30
2019-04-07T18:40:58.312Z,100562.11
2019-04-07T18:43:28.938Z,100568.78
2019-04-07T18:46:16.939Z,100575.87
2019-04-07T18:48:56.445Z,100576.34
2019-04-07T18:51:29.856Z,100585.87
2019-04-07T18:54:04.116Z,100584.02
2019-04-07T18:56:37.985Z,100588.45
2019-04-07T18:59:18.194Z,100593.81
2019-04-07T19:02:11.087Z,100592.66
2019-04-07T19:05:00.814Z,100590.59
2019-04-07T19:07:29.328Z,100594.00
2019-04-07T19:10:09.788Z,100601.70
2019-04-07T19:12:41.098Z,100604.88
2019-04-07T19:15:16.145Z,100609.09
2019-04-07T19:18:05.945Z,100605.92
2019-04-07T19:20:51.465Z,100611.50
2019-04-07T19:23:40.996Z,100610.97
2019-04-07T19:26:18.096Z,100619.01
2019-04-07T19:28:49.805Z,100621.32
2019-04-07T19:31:21.626Z,100620.38
2019-04-07T19:34:09.863Z,100619.68
2019-04-07T19:36:50.025Z,100625.86
2019-04-07T19:39:38.336Z,100624.70
2019-04-07T19:42:14.457Z,100625.71
2019-04-07T19:44:51.092Z,100624.00
2019-04-07T19:47:31.162Z,100623.50
2019-04-07T19:50:04.813Z,100629.75
2019-04-07T19:52:52.742Z,100629.87
2019-04-07T19:55:24.869Z,100623.66
2019-04-07T19:58:14.136Z,100627.36
2019-04-07T20:00:57.105Z,100627.67
2019-04-07T20:03:44.944Z,100626.97
2019-04-07T20:06:14.846Z,100619.70
2019-04-07T20:08:44.153Z,100626.20
2019-04-07T20:11:27.692Z,100630.55
2019-04-07T20:14:01.057Z,100623.39
2019-04-07T20:16:35.074Z,100627.28
2019-04-07T20:19:18.832Z,100632.10
2019-04-07T20:21:56.812Z,100637.67
2019-04-07T20:24:29.562Z,100634.55
2019-04-07T20:26:59.082Z,100635.50
2019-04-07T20:29:50.064Z,100643.40
2019-04-07T20:32:34.859Z,100639.67
2019-04-07T20:35:10.961Z,100643.35
2019-04-07T20:37:41.180Z,100647.88
2019-04-07T20:40:17.910Z,100647.88
2019-04-07T20:42:51.656Z,100642.19
2019-04-07T20:45:38.646Z,100648.51
2019-04-07T20:48:28.911Z,100645.42
2019-04-07T20:51:00.639Z,100640.37
2019-04-07T20:53:45.104Z,100641.83
2019-04-07T20:56:23.756Z,100638.23
2019-04-07T20:58:59.413Z,100636.47
2019-04-07T21:01:33.960Z,100643.97
2019-04-07T21:04:05.224Z,100643.56
2019-04-07T21:06:52.678Z,100643.65
2019-04-07T21:09:39.724Z,100648.16
2019-04-07T21:12:13.251Z,100652.12
2019-04-07T21:15:16.914Z,100642.00
2019-04-07T21:17:40.776Z,100648.74
2019-04-07T21:20:11.818Z,100643.25
2019-04-07T21:22:45.152Z,100647.47
2019-04-07T21:25:28.780Z,100646.83
2019-04-07T21:28:06.531Z,100643.05
2019-04-07T21:30:44.542Z,100643.62
2019-04-07T21:33:23.595Z,100644.98
2019-04-07T21:36:12.102Z,100643.70
2019-04-07T21:39:00.303Z,100641.02
2019-04-07T21:41:47.893Z,100644.67
2019-04-07T21:44:28.364Z,100640.73
2019-04-07T21:47:02.125Z,100653.34
2019-04-07T21:49:38.260Z,100653.17
2019-04-07T21:52:23.343Z,100648.98
2019-04-07T21:54:52.428Z,100651.56
2019-04-07T21:57:29.470Z,100649.31
2019-04-07T22:00:10.500Z,100651.84
2019-04-07T22:02:53.721Z,100653.50
2019-04-07T22:05:26.165Z,100652.84
2019-04-07T22:08:03.697Z,100654.52
2019-04-07T22:10:31.924Z,100650.83
2019-04-07T22:13:04.123Z,100662.67
2019-04-07T22:15:43.027Z,100664.70
2019-04-07T22:18:07.568Z,100667.41
2019-04-07T22:20:36.906Z,100662.48
2019-04-07T22:23:09.966Z,100671.06
2019-04-07T22:25:48.263Z,100667.41
2019-04-07T22:28:18.503Z,100668.31
2019-04-07T22:30:51.310Z,100668.12
2019-04-07T22:33:25.241Z,100670.33
2019-04-07T22:35:53.276Z,100671.50
2019-04-07T22:38:23.883Z,100662.28
2019-04-07T22:40:54.331Z,100666.17
2019-04-07T22:43:26.151Z,100663.90
2019-04-07T22:46:06.243Z,100662.73
2019-04-07T22:48:28.422Z,100660.91
2019-04-07T22:50:58.911Z,100659.80
2019-04-07T22:53:31.172Z,100662.65
2019-04-07T22:55:59.994Z,100664.28
2019-04-07T22:58:31.944Z,100660.23
2019-04-07T23:01:01.626Z,100662.90
2019-04-07T23:03:31.357Z,100662.38
2019-04-07T23:06:01.306Z,100668.14
2019-04-07T23:08:31.252Z,100669.45
2019-04-07T23:11:00.953Z,100666.18
2019-04-07T23:13:30.904Z,100670.24
2019-04-07T23:16:08.692Z,100662.45
2019-04-07T23:18:32.208Z,100666.37
2019-04-07T23:21:03.076Z,100670.08
2019-04-07T23:23:32.765Z,100667.95
2019-04-07T23:26:02.778Z,100675.03
2019-04-07T23:28:32.687Z,100668.73
2019-04-07T23:31:03.294Z,100670.27
2019-04-07T23:33:32.839Z,100669.10
2019-04-07T23:36:02.474Z,100666.76
2019-04-07T23:38:33.743Z,100668.51
2019-04-07T23:41:03.469Z,100666.67
2019-04-07T23:43:34.245Z,100669.67
2019-04-07T23:46:05.132Z,100668.08
2019-04-07T23:48:34.785Z,100672.02
2019-04-07T23:51:04.558Z,100666.38
2019-04-07T23:54:09.253Z,100671.41
2019-04-07T23:56:41.619Z,100677.63
2019-04-07T23:59:12.122Z,100677.70
